Terminal Aerodrome Forecast
Issued by NWS Memphis, TN

Home | Current Version | Previous Version | Text Only | Print | Product List | Glossary On
Versions: 1 2 3 4 5 6 7 8 9 10 11 12 13 14 15
976
FTUS44 KMEG 231940 AAA
TAFMKL
TAF AMD
KMKL 231940Z 2320/2418 18008KT 4SM -SHRA SCT025 OVC040
     FM232300 25005KT 6SM BR VCSH BKN018 OVC035
     FM240400 VRB03KT 5SM BR OVC008
     FM240900 VRB03KT 3SM BR OVC004
     FM241400 32006KT P6SM OVC010=

USA.gov is the U.S. government's official web portal to all federal, state and local government web resources and services.